sensor_id;sensor_type;location;lat;lon;timestamp;temperature;humidity
27559;DHT22;15002;52.028;5.670;2023-10-09T00:02:12;16.90;99.90
27559;DHT22;15002;52.028;5.670;2023-10-09T00:04:39;16.80;99.90
27559;DHT22;15002;52.028;5.670;2023-10-09T00:07:11;16.80;99.90
27559;DHT22;15002;52.028;5.670;2023-10-09T00:09:37;16.80;99.90
27559;DHT22;15002;52.028;5.670;2023-10-09T00:14:41;16.70;99.90
27559;DHT22;15002;52.028;5.670;2023-10-09T00:17:16;16.80;99.90
27559;DHT22;15002;52.028;5.670;2023-10-09T00:19:45;16.90;99.90
27559;DHT22;15002;52.028;5.670;2023-10-09T00:22:17;16.90;99.90
27559;DHT22;15002;52.028;5.670;2023-10-09T00:24:56;16.90;99.90
27559;DHT22;15002;52.028;5.670;2023-10-09T00:27:41;17.00;99.90
27559;DHT22;15002;52.028;5.670;2023-10-09T00:30:09;17.10;99.90
27559;DHT22;15002;52.028;5.670;2023-10-09T00:32:37;17.00;99.90
27559;DHT22;15002;52.028;5.670;2023-10-09T00:35:07;16.90;99.90
27559;DHT22;15002;52.028;5.670;2023-10-09T00:37:59;16.90;99.90
27559;DHT22;15002;52.028;5.670;2023-10-09T00:40:32;16.80;99.90
27559;DHT22;15002;52.028;5.670;2023-10-09T00:43:00;16.80;99.90
27559;DHT22;15002;52.028;5.670;2023-10-09T00:45:32;16.80;99.90
27559;DHT22;15002;52.028;5.670;2023-10-09T00:47:58;16.80;99.90
27559;DHT22;15002;52.028;5.670;2023-10-09T00:50:27;16.70;99.90
27559;DHT22;15002;52.028;5.670;2023-10-09T00:53:01;16.70;99.90
27559;DHT22;15002;52.028;5.670;2023-10-09T00:55:37;16.80;99.90
27559;DHT22;15002;52.028;5.670;2023-10-09T00:58:12;16.80;99.90
27559;DHT22;15002;52.028;5.670;2023-10-09T01:00:43;16.80;99.90
27559;DHT22;15002;52.028;5.670;2023-10-09T01:03:16;16.80;99.90
27559;DHT22;15002;52.028;5.670;2023-10-09T01:05:47;17.00;99.90
27559;DHT22;15002;52.028;5.670;2023-10-09T01:08:31;16.90;99.90
27559;DHT22;15002;52.028;5.670;2023-10-09T01:10:58;16.90;99.90
27559;DHT22;15002;52.028;5.670;2023-10-09T01:13:35;16.90;99.90
27559;DHT22;15002;52.028;5.670;2023-10-09T01:16:20;16.90;99.90
27559;DHT22;15002;52.028;5.670;2023-10-09T01:18:49;16.90;99.90
27559;DHT22;15002;52.028;5.670;2023-10-09T01:21:19;16.90;99.90
27559;DHT22;15002;52.028;5.670;2023-10-09T01:23:51;16.90;99.90
27559;DHT22;15002;52.028;5.670;2023-10-09T01:29:00;16.80;99.90
27559;DHT22;15002;52.028;5.670;2023-10-09T01:31:26;16.80;99.90
27559;DHT22;15002;52.028;5.670;2023-10-09T01:33:52;16.90;99.90
27559;DHT22;15002;52.028;5.670;2023-10-09T01:36:25;16.90;99.90
27559;DHT22;15002;52.028;5.670;2023-10-09T01:38:59;16.90;99.90
27559;DHT22;15002;52.028;5.670;2023-10-09T01:41:25;16.90;99.90
27559;DHT22;15002;52.028;5.670;2023-10-09T01:43:50;17.00;99.90
27559;DHT22;15002;52.028;5.670;2023-10-09T01:46:18;17.00;99.90
27559;DHT22;15002;52.028;5.670;2023-10-09T01:48:45;17.00;99.90
27559;DHT22;15002;52.028;5.670;2023-10-09T01:51:15;17.10;99.90
27559;DHT22;15002;52.028;5.670;2023-10-09T01:53:45;17.10;99.90
27559;DHT22;15002;52.028;5.670;2023-10-09T01:56:15;17.10;99.90
27559;DHT22;15002;52.028;5.670;2023-10-09T01:58:42;17.10;99.90
27559;DHT22;15002;52.028;5.670;2023-10-09T02:01:10;17.10;99.90
27559;DHT22;15002;52.028;5.670;2023-10-09T02:03:37;17.10;99.90
27559;DHT22;15002;52.028;5.670;2023-10-09T02:06:03;17.10;99.90
27559;DHT22;15002;52.028;5.670;2023-10-09T02:08:31;17.10;99.90
27559;DHT22;15002;52.028;5.670;2023-10-09T02:11:00;17.20;99.90
27559;DHT22;15002;52.028;5.670;2023-10-09T02:13:28;17.20;99.90
27559;DHT22;15002;52.028;5.670;2023-10-09T02:16:00;17.30;99.90
27559;DHT22;15002;52.028;5.670;2023-10-09T02:18:42;17.30;99.90
27559;DHT22;15002;52.028;5.670;2023-10-09T02:21:22;17.30;99.90
27559;DHT22;15002;52.028;5.670;2023-10-09T02:24:05;17.40;99.90
27559;DHT22;15002;52.028;5.670;2023-10-09T02:26:33;17.40;99.90
27559;DHT22;15002;52.028;5.670;2023-10-09T02:29:04;17.40;99.90
27559;DHT22;15002;52.028;5.670;2023-10-09T02:31:41;17.50;99.90
27559;DHT22;15002;52.028;5.670;2023-10-09T02:34:13;17.50;99.90
27559;DHT22;15002;52.028;5.670;2023-10-09T02:36:41;17.50;99.90
27559;DHT22;15002;52.028;5.670;2023-10-09T02:39:07;17.50;99.90
27559;DHT22;15002;52.028;5.670;2023-10-09T02:41:47;17.60;99.90
27559;DHT22;15002;52.028;5.670;2023-10-09T02:44:15;17.60;99.90
27559;DHT22;15002;52.028;5.670;2023-10-09T02:46:41;17.60;99.90
27559;DHT22;15002;52.028;5.670;2023-10-09T02:49:10;17.60;99.90
27559;DHT22;15002;52.028;5.670;2023-10-09T02:51:41;17.60;99.90
27559;DHT22;15002;52.028;5.670;2023-10-09T02:54:08;17.60;99.90
27559;DHT22;15002;52.028;5.670;2023-10-09T02:56:51;17.60;99.90
27559;DHT22;15002;52.028;5.670;2023-10-09T02:59:33;17.60;99.90
27559;DHT22;15002;52.028;5.670;2023-10-09T03:01:59;17.60;99.90
27559;DHT22;15002;52.028;5.670;2023-10-09T03:04:27;17.50;99.90
27559;DHT22;15002;52.028;5.670;2023-10-09T03:07:02;17.60;99.90
27559;DHT22;15002;52.028;5.670;2023-10-09T03:09:29;17.60;99.90
27559;DHT22;15002;52.028;5.670;2023-10-09T03:12:00;17.60;99.90
27559;DHT22;15002;52.028;5.670;2023-10-09T03:14:29;17.60;99.90
27559;DHT22;15002;52.028;5.670;2023-10-09T03:16:56;17.70;99.90
27559;DHT22;15002;52.028;5.670;2023-10-09T03:19:23;17.60;99.90
27559;DHT22;15002;52.028;5.670;2023-10-09T03:21:50;17.60;99.90
27559;DHT22;15002;52.028;5.670;2023-10-09T03:24:16;17.70;99.90
27559;DHT22;15002;52.028;5.670;2023-10-09T03:26:43;17.60;99.90
27559;DHT22;15002;52.028;5.670;2023-10-09T03:29:12;17.60;99.90
27559;DHT22;15002;52.028;5.670;2023-10-09T03:31:38;17.60;99.90
27559;DHT22;15002;52.028;5.670;2023-10-09T03:34:05;17.60;99.90
27559;DHT22;15002;52.028;5.670;2023-10-09T03:36:31;17.60;99.90
27559;DHT22;15002;52.028;5.670;2023-10-09T03:38:57;17.60;99.90
27559;DHT22;15002;52.028;5.670;2023-10-09T03:41:26;17.70;99.90
27559;DHT22;15002;52.028;5.670;2023-10-09T03:43:53;17.70;99.90
27559;DHT22;15002;52.028;5.670;2023-10-09T03:46:22;17.70;99.90
27559;DHT22;15002;52.028;5.670;2023-10-09T03:48:58;17.70;99.90
27559;DHT22;15002;52.028;5.670;2023-10-09T03:51:27;17.70;99.90
27559;DHT22;15002;52.028;5.670;2023-10-09T03:53:53;17.70;99.90
27559;DHT22;15002;52.028;5.670;2023-10-09T03:56:19;17.60;99.90
27559;DHT22;15002;52.028;5.670;2023-10-09T03:58:48;17.60;99.90
27559;DHT22;15002;52.028;5.670;2023-10-09T04:01:21;17.60;99.90
27559;DHT22;15002;52.028;5.670;2023-10-09T04:03:54;17.60;99.90
27559;DHT22;15002;52.028;5.670;2023-10-09T04:06:23;17.80;99.90
27559;DHT22;15002;52.028;5.670;2023-10-09T04:08:54;17.80;99.90
27559;DHT22;15002;52.028;5.670;2023-10-09T04:11:20;17.70;99.90
27559;DHT22;15002;52.028;5.670;2023-10-09T04:13:49;17.70;99.90
27559;DHT22;15002;52.028;5.670;2023-10-09T04:16:19;17.70;99.90
27559;DHT22;15002;52.028;5.670;2023-10-09T04:19:02;17.70;99.90
27559;DHT22;15002;52.028;5.670;2023-10-09T04:21:37;17.70;99.90
27559;DHT22;15002;52.028;5.670;2023-10-09T04:24:04;17.70;99.90
27559;DHT22;15002;52.028;5.670;2023-10-09T04:26:44;17.70;99.90
27559;DHT22;15002;52.028;5.670;2023-10-09T04:29:14;17.80;99.90
27559;DHT22;15002;52.028;5.670;2023-10-09T04:31:55;17.80;99.90
27559;DHT22;15002;52.028;5.670;2023-10-09T04:34:26;17.80;99.90
27559;DHT22;15002;52.028;5.670;2023-10-09T04:37:00;17.80;99.90
27559;DHT22;15002;52.028;5.670;2023-10-09T04:39:27;17.80;99.90
27559;DHT22;15002;52.028;5.670;2023-10-09T04:41:57;17.90;99.90
27559;DHT22;15002;52.028;5.670;2023-10-09T04:44:42;17.80;99.90
27559;DHT22;15002;52.028;5.670;2023-10-09T04:47:37;17.80;99.90
27559;DHT22;15002;52.028;5.670;2023-10-09T04:50:08;17.80;99.90
27559;DHT22;15002;52.028;5.670;2023-10-09T04:52:36;17.90;99.90
27559;DHT22;15002;52.028;5.670;2023-10-09T04:55:01;17.90;99.90
27559;DHT22;15002;52.028;5.670;2023-10-09T04:57:43;17.90;99.90
27559;DHT22;15002;52.028;5.670;2023-10-09T05:00:16;17.90;99.90
27559;DHT22;15002;52.028;5.670;2023-10-09T05:03:08;17.90;99.90
27559;DHT22;15002;52.028;5.670;2023-10-09T05:05:52;17.90;99.90
27559;DHT22;15002;52.028;5.670;2023-10-09T05:08:27;17.90;99.90
27559;DHT22;15002;52.028;5.670;2023-10-09T05:10:57;17.90;99.90
27559;DHT22;15002;52.028;5.670;2023-10-09T05:13:23;17.90;99.90
27559;DHT22;15002;52.028;5.670;2023-10-09T05:16:24;17.90;99.90
27559;DHT22;15002;52.028;5.670;2023-10-09T05:18:58;18.00;99.90
27559;DHT22;15002;52.028;5.670;2023-10-09T05:24:10;18.10;99.90
27559;DHT22;15002;52.028;5.670;2023-10-09T05:29:14;18.10;99.90
27559;DHT22;15002;52.028;5.670;2023-10-09T05:34:25;18.30;99.90
27559;DHT22;15002;52.028;5.670;2023-10-09T05:37:03;18.40;99.90
27559;DHT22;15002;52.028;5.670;2023-10-09T05:39:47;18.40;99.90
27559;DHT22;15002;52.028;5.670;2023-10-09T05:42:44;18.30;99.90
27559;DHT22;15002;52.028;5.670;2023-10-09T05:45:16;18.40;99.90
27559;DHT22;15002;52.028;5.670;2023-10-09T05:47:52;18.50;99.90
27559;DHT22;15002;52.028;5.670;2023-10-09T05:50:37;18.40;99.90
27559;DHT22;15002;52.028;5.670;2023-10-09T05:53:31;18.50;99.90
27559;DHT22;15002;52.028;5.670;2023-10-09T05:56:10;18.50;99.90
27559;DHT22;15002;52.028;5.670;2023-10-09T05:58:54;18.50;99.90
27559;DHT22;15002;52.028;5.670;2023-10-09T06:01:32;18.50;99.90
27559;DHT22;15002;52.028;5.670;2023-10-09T06:04:16;18.40;99.90
27559;DHT22;15002;52.028;5.670;2023-10-09T06:06:49;18.50;99.90
27559;DHT22;15002;52.028;5.670;2023-10-09T06:09:37;18.50;99.90
27559;DHT22;15002;52.028;5.670;2023-10-09T06:12:15;18.50;99.90
27559;DHT22;15002;52.028;5.670;2023-10-09T06:15:15;18.60;99.90
27559;DHT22;15002;52.028;5.670;2023-10-09T06:18:15;18.50;99.90
27559;DHT22;15002;52.028;5.670;2023-10-09T06:21:00;18.60;99.90
27559;DHT22;15002;52.028;5.670;2023-10-09T06:23:44;18.60;99.90
27559;DHT22;15002;52.028;5.670;2023-10-09T06:26:22;19.00;99.90
27559;DHT22;15002;52.028;5.670;2023-10-09T06:28:51;18.80;99.90
27559;DHT22;15002;52.028;5.670;2023-10-09T06:31:37;18.70;99.90
27559;DHT22;15002;52.028;5.670;2023-10-09T06:34:21;18.80;99.90
27559;DHT22;15002;52.028;5.670;2023-10-09T06:37:01;18.70;99.90
27559;DHT22;15002;52.028;5.670;2023-10-09T06:39:45;18.70;99.90
27559;DHT22;15002;52.028;5.670;2023-10-09T06:42:27;18.70;99.90
27559;DHT22;15002;52.028;5.670;2023-10-09T06:45:02;18.70;99.90
27559;DHT22;15002;52.028;5.670;2023-10-09T06:47:50;18.70;99.90
27559;DHT22;15002;52.028;5.670;2023-10-09T06:50:35;18.70;99.90
27559;DHT22;15002;52.028;5.670;2023-10-09T06:53:19;18.60;99.90
27559;DHT22;15002;52.028;5.670;2023-10-09T06:55:46;18.70;99.90
27559;DHT22;15002;52.028;5.670;2023-10-09T06:58:23;18.60;99.90
27559;DHT22;15002;52.028;5.670;2023-10-09T07:00:53;18.70;99.90
27559;DHT22;15002;52.028;5.670;2023-10-09T07:03:37;18.60;99.90
27559;DHT22;15002;52.028;5.670;2023-10-09T07:06:18;18.60;99.90
27559;DHT22;15002;52.028;5.670;2023-10-09T07:08:53;18.70;99.90
27559;DHT22;15002;52.028;5.670;2023-10-09T07:11:39;18.70;99.90
27559;DHT22;15002;52.028;5.670;2023-10-09T07:14:23;18.80;99.90
27559;DHT22;15002;52.028;5.670;2023-10-09T07:17:02;18.80;99.90
27559;DHT22;15002;52.028;5.670;2023-10-09T07:19:31;18.80;99.90
27559;DHT22;15002;52.028;5.670;2023-10-09T07:22:02;18.90;99.90
27559;DHT22;15002;52.028;5.670;2023-10-09T07:24:32;18.90;99.90
27559;DHT22;15002;52.028;5.670;2023-10-09T07:27:11;18.90;99.90
27559;DHT22;15002;52.028;5.670;2023-10-09T07:29:40;19.00;99.90
27559;DHT22;15002;52.028;5.670;2023-10-09T07:32:18;19.00;99.90
27559;DHT22;15002;52.028;5.670;2023-10-09T07:34:50;19.10;99.90
27559;DHT22;15002;52.028;5.670;2023-10-09T07:37:26;19.30;99.90
27559;DHT22;15002;52.028;5.670;2023-10-09T07:40:04;19.20;99.90
27559;DHT22;15002;52.028;5.670;2023-10-09T07:42:33;19.10;99.90
27559;DHT22;15002;52.028;5.670;2023-10-09T07:45:19;19.50;99.90
27559;DHT22;15002;52.028;5.670;2023-10-09T07:47:49;19.60;99.90
27559;DHT22;15002;52.028;5.670;2023-10-09T07:50:37;19.80;99.90
27559;DHT22;15002;52.028;5.670;2023-10-09T07:53:06;19.80;99.90
27559;DHT22;15002;52.028;5.670;2023-10-09T07:55:46;19.80;99.90
27559;DHT22;15002;52.028;5.670;2023-10-09T07:58:21;19.60;99.90
27559;DHT22;15002;52.028;5.670;2023-10-09T08:00:56;19.50;99.90
27559;DHT22;15002;52.028;5.670;2023-10-09T08:03:46;19.40;99.90
27559;DHT22;15002;52.028;5.670;2023-10-09T08:06:16;19.40;99.90
27559;DHT22;15002;52.028;5.670;2023-10-09T08:09:19;19.40;99.90
27559;DHT22;15002;52.028;5.670;2023-10-09T08:12:04;19.50;99.90
27559;DHT22;15002;52.028;5.670;2023-10-09T08:14:43;19.50;99.90
27559;DHT22;15002;52.028;5.670;2023-10-09T08:17:10;19.60;99.90
27559;DHT22;15002;52.028;5.670;2023-10-09T08:19:48;19.70;99.90
27559;DHT22;15002;52.028;5.670;2023-10-09T08:22:21;19.80;99.90
27559;DHT22;15002;52.028;5.670;2023-10-09T08:24:50;19.80;99.90
27559;DHT22;15002;52.028;5.670;2023-10-09T08:27:29;19.90;99.90
27559;DHT22;15002;52.028;5.670;2023-10-09T08:30:02;20.00;99.90
27559;DHT22;15002;52.028;5.670;2023-10-09T08:33:02;20.10;99.90
27559;DHT22;15002;52.028;5.670;2023-10-09T08:35:33;20.10;99.90
27559;DHT22;15002;52.028;5.670;2023-10-09T08:38:02;20.20;99.90
27559;DHT22;15002;52.028;5.670;2023-10-09T08:40:35;20.20;99.90
27559;DHT22;15002;52.028;5.670;2023-10-09T08:43:19;20.30;99.90
27559;DHT22;15002;52.028;5.670;2023-10-09T08:45:47;20.20;99.90
27559;DHT22;15002;52.028;5.670;2023-10-09T08:48:13;20.20;99.90
27559;DHT22;15002;52.028;5.670;2023-10-09T08:50:44;20.30;99.90
27559;DHT22;15002;52.028;5.670;2023-10-09T08:53:13;20.40;99.90
27559;DHT22;15002;52.028;5.670;2023-10-09T08:55:41;20.60;99.90
27559;DHT22;15002;52.028;5.670;2023-10-09T08:58:07;20.80;99.90
27559;DHT22;15002;52.028;5.670;2023-10-09T09:00:42;20.90;99.90
27559;DHT22;15002;52.028;5.670;2023-10-09T09:03:11;20.90;99.90
27559;DHT22;15002;52.028;5.670;2023-10-09T09:05:37;20.90;99.90
27559;DHT22;15002;52.028;5.670;2023-10-09T09:08:03;21.00;99.90
27559;DHT22;15002;52.028;5.670;2023-10-09T09:10:30;21.30;99.90
27559;DHT22;15002;52.028;5.670;2023-10-09T09:13:04;21.30;99.90
27559;DHT22;15002;52.028;5.670;2023-10-09T09:15:32;21.20;99.90
27559;DHT22;15002;52.028;5.670;2023-10-09T09:18:06;21.30;99.90
27559;DHT22;15002;52.028;5.670;2023-10-09T09:20:34;21.40;99.90
27559;DHT22;15002;52.028;5.670;2023-10-09T09:23:02;21.60;99.90
27559;DHT22;15002;52.028;5.670;2023-10-09T09:25:43;21.70;99.90
27559;DHT22;15002;52.028;5.670;2023-10-09T09:28:29;21.40;99.90
27559;DHT22;15002;52.028;5.670;2023-10-09T09:31:08;21.70;99.90
27559;DHT22;15002;52.028;5.670;2023-10-09T09:33:39;21.60;99.90
27559;DHT22;15002;52.028;5.670;2023-10-09T09:36:13;21.80;99.90
27559;DHT22;15002;52.028;5.670;2023-10-09T09:38:39;22.00;99.90
27559;DHT22;15002;52.028;5.670;2023-10-09T09:41:08;22.00;99.90
27559;DHT22;15002;52.028;5.670;2023-10-09T09:43:37;22.10;99.90
27559;DHT22;15002;52.028;5.670;2023-10-09T09:46:07;22.10;99.90
27559;DHT22;15002;52.028;5.670;2023-10-09T09:48:40;22.10;99.90
27559;DHT22;15002;52.028;5.670;2023-10-09T09:51:14;22.20;99.90
27559;DHT22;15002;52.028;5.670;2023-10-09T09:53:43;22.20;99.90
27559;DHT22;15002;52.028;5.670;2023-10-09T09:56:14;22.20;99.90
27559;DHT22;15002;52.028;5.670;2023-10-09T09:58:50;22.50;99.90
27559;DHT22;15002;52.028;5.670;2023-10-09T10:01:20;22.50;99.90
27559;DHT22;15002;52.028;5.670;2023-10-09T10:04:09;22.50;99.90
27559;DHT22;15002;52.028;5.670;2023-10-09T10:06:37;22.60;99.90
27559;DHT22;15002;52.028;5.670;2023-10-09T10:09:06;22.60;99.90
27559;DHT22;15002;52.028;5.670;2023-10-09T10:12:02;22.60;99.90
27559;DHT22;15002;52.028;5.670;2023-10-09T10:14:54;22.70;99.90
27559;DHT22;15002;52.028;5.670;2023-10-09T10:20:25;22.70;99.90
27559;DHT22;15002;52.028;5.670;2023-10-09T10:22:51;22.80;99.90
27559;DHT22;15002;52.028;5.670;2023-10-09T10:28:20;23.10;99.90
27559;DHT22;15002;52.028;5.670;2023-10-09T10:31:05;22.90;99.90
27559;DHT22;15002;52.028;5.670;2023-10-09T10:34:04;22.90;99.90
27559;DHT22;15002;52.028;5.670;2023-10-09T10:36:33;23.00;99.90
27559;DHT22;15002;52.028;5.670;2023-10-09T10:39:01;22.90;99.90
27559;DHT22;15002;52.028;5.670;2023-10-09T10:41:32;22.90;99.90
27559;DHT22;15002;52.028;5.670;2023-10-09T10:44:04;23.10;99.90
27559;DHT22;15002;52.028;5.670;2023-10-09T10:46:48;23.00;99.90
27559;DHT22;15002;52.028;5.670;2023-10-09T10:49:20;23.20;99.90
27559;DHT22;15002;52.028;5.670;2023-10-09T10:51:51;23.10;99.90
27559;DHT22;15002;52.028;5.670;2023-10-09T10:54:35;23.20;99.90
27559;DHT22;15002;52.028;5.670;2023-10-09T10:57:01;23.00;99.90
27559;DHT22;15002;52.028;5.670;2023-10-09T10:59:30;23.10;99.90
27559;DHT22;15002;52.028;5.670;2023-10-09T11:02:09;23.20;99.90
27559;DHT22;15002;52.028;5.670;2023-10-09T11:04:35;23.30;99.90
27559;DHT22;15002;52.028;5.670;2023-10-09T11:07:07;23.40;99.90
27559;DHT22;15002;52.028;5.670;2023-10-09T11:09:47;23.40;99.90
27559;DHT22;15002;52.028;5.670;2023-10-09T11:12:42;23.20;99.90
27559;DHT22;15002;52.028;5.670;2023-10-09T11:15:10;23.30;99.90
27559;DHT22;15002;52.028;5.670;2023-10-09T11:18:01;23.30;99.90
27559;DHT22;15002;52.028;5.670;2023-10-09T11:20:34;23.60;99.90
27559;DHT22;15002;52.028;5.670;2023-10-09T11:23:01;23.50;99.90
27559;DHT22;15002;52.028;5.670;2023-10-09T11:25:45;23.40;99.90
27559;DHT22;15002;52.028;5.670;2023-10-09T11:28:19;23.50;99.90
27559;DHT22;15002;52.028;5.670;2023-10-09T11:31:05;23.40;99.90
27559;DHT22;15002;52.028;5.670;2023-10-09T11:33:46;23.40;99.90
27559;DHT22;15002;52.028;5.670;2023-10-09T11:36:14;23.40;99.90
27559;DHT22;15002;52.028;5.670;2023-10-09T11:38:41;23.60;99.90
27559;DHT22;15002;52.028;5.670;2023-10-09T11:41:17;23.80;99.90
27559;DHT22;15002;52.028;5.670;2023-10-09T11:43:54;23.70;99.90
27559;DHT22;15002;52.028;5.670;2023-10-09T11:46:23;23.80;99.90
27559;DHT22;15002;52.028;5.670;2023-10-09T11:49:24;24.00;99.90
27559;DHT22;15002;52.028;5.670;2023-10-09T11:52:09;24.00;99.90
27559;DHT22;15002;52.028;5.670;2023-10-09T11:54:38;23.90;99.90
27559;DHT22;15002;52.028;5.670;2023-10-09T11:57:04;23.90;99.90
27559;DHT22;15002;52.028;5.670;2023-10-09T11:59:31;23.80;99.90
27559;DHT22;15002;52.028;5.670;2023-10-09T12:02:04;24.00;99.90
27559;DHT22;15002;52.028;5.670;2023-10-09T12:04:30;23.90;99.90
27559;DHT22;15002;52.028;5.670;2023-10-09T12:06:58;23.80;99.90
27559;DHT22;15002;52.028;5.670;2023-10-09T12:09:35;23.90;99.90
27559;DHT22;15002;52.028;5.670;2023-10-09T12:12:05;23.90;99.90
27559;DHT22;15002;52.028;5.670;2023-10-09T12:14:31;24.10;99.90
27559;DHT22;15002;52.028;5.670;2023-10-09T12:17:07;24.00;99.90
27559;DHT22;15002;52.028;5.670;2023-10-09T12:19:37;24.00;99.90
27559;DHT22;15002;52.028;5.670;2023-10-09T12:22:06;24.10;99.90
27559;DHT22;15002;52.028;5.670;2023-10-09T12:24:32;24.00;99.90
27559;DHT22;15002;52.028;5.670;2023-10-09T12:26:59;23.90;99.90
27559;DHT22;15002;52.028;5.670;2023-10-09T12:29:25;24.00;99.90
27559;DHT22;15002;52.028;5.670;2023-10-09T12:31:58;23.90;99.90
27559;DHT22;15002;52.028;5.670;2023-10-09T12:34:27;23.80;99.90
27559;DHT22;15002;52.028;5.670;2023-10-09T12:36:56;23.90;99.90
27559;DHT22;15002;52.028;5.670;2023-10-09T12:39:26;23.80;99.90
27559;DHT22;15002;52.028;5.670;2023-10-09T12:41:58;23.60;99.90
27559;DHT22;15002;52.028;5.670;2023-10-09T12:44:37;23.50;99.90
27559;DHT22;15002;52.028;5.670;2023-10-09T12:47:07;23.60;99.90
27559;DHT22;15002;52.028;5.670;2023-10-09T12:49:32;23.50;99.90
27559;DHT22;15002;52.028;5.670;2023-10-09T12:51:58;23.60;99.90
27559;DHT22;15002;52.028;5.670;2023-10-09T12:54:27;23.60;99.90
27559;DHT22;15002;52.028;5.670;2023-10-09T12:56:56;23.60;99.90
27559;DHT22;15002;52.028;5.670;2023-10-09T12:59:23;23.50;99.90
27559;DHT22;15002;52.028;5.670;2023-10-09T13:01:50;23.50;99.90
27559;DHT22;15002;52.028;5.670;2023-10-09T13:04:23;23.50;99.90
27559;DHT22;15002;52.028;5.670;2023-10-09T13:06:49;23.40;99.90
27559;DHT22;15002;52.028;5.670;2023-10-09T13:09:19;23.40;99.90
27559;DHT22;15002;52.028;5.670;2023-10-09T13:11:58;23.30;99.90
27559;DHT22;15002;52.028;5.670;2023-10-09T13:14:28;23.40;99.90
27559;DHT22;15002;52.028;5.670;2023-10-09T13:16:54;23.40;99.90
27559;DHT22;15002;52.028;5.670;2023-10-09T13:19:21;23.30;99.90
27559;DHT22;15002;52.028;5.670;2023-10-09T13:21:49;23.30;99.90
27559;DHT22;15002;52.028;5.670;2023-10-09T13:24:15;23.30;99.90
27559;DHT22;15002;52.028;5.670;2023-10-09T13:26:42;23.30;99.90
27559;DHT22;15002;52.028;5.670;2023-10-09T13:29:11;23.50;99.90
27559;DHT22;15002;52.028;5.670;2023-10-09T13:31:37;23.30;99.90
27559;DHT22;15002;52.028;5.670;2023-10-09T13:34:06;23.20;99.90
27559;DHT22;15002;52.028;5.670;2023-10-09T13:36:36;23.20;99.90
27559;DHT22;15002;52.028;5.670;2023-10-09T13:39:07;23.20;99.90
27559;DHT22;15002;52.028;5.670;2023-10-09T13:41:52;23.30;99.90
27559;DHT22;15002;52.028;5.670;2023-10-09T13:44:30;23.30;99.90
27559;DHT22;15002;52.028;5.670;2023-10-09T13:47:03;23.10;99.90
27559;DHT22;15002;52.028;5.670;2023-10-09T13:49:34;23.10;99.90
27559;DHT22;15002;52.028;5.670;2023-10-09T13:52:03;23.10;99.90
27559;DHT22;15002;52.028;5.670;2023-10-09T13:54:29;22.90;99.90
27559;DHT22;15002;52.028;5.670;2023-10-09T13:57:02;22.90;99.90
27559;DHT22;15002;52.028;5.670;2023-10-09T13:59:32;22.80;99.90
27559;DHT22;15002;52.028;5.670;2023-10-09T14:02:00;22.80;99.90
27559;DHT22;15002;52.028;5.670;2023-10-09T14:04:28;22.90;99.90
27559;DHT22;15002;52.028;5.670;2023-10-09T14:06:53;22.90;99.90
27559;DHT22;15002;52.028;5.670;2023-10-09T14:09:23;22.90;99.90
27559;DHT22;15002;52.028;5.670;2023-10-09T14:12:05;23.00;99.90
27559;DHT22;15002;52.028;5.670;2023-10-09T14:14:37;22.90;99.90
27559;DHT22;15002;52.028;5.670;2023-10-09T14:17:13;22.90;99.90
27559;DHT22;15002;52.028;5.670;2023-10-09T14:19:42;22.90;99.90
27559;DHT22;15002;52.028;5.670;2023-10-09T14:22:13;22.90;99.90
27559;DHT22;15002;52.028;5.670;2023-10-09T14:24:48;22.90;99.90
27559;DHT22;15002;52.028;5.670;2023-10-09T14:27:21;22.90;99.90
27559;DHT22;15002;52.028;5.670;2023-10-09T14:29:50;22.80;99.90
27559;DHT22;15002;52.028;5.670;2023-10-09T14:32:16;22.80;99.90
27559;DHT22;15002;52.028;5.670;2023-10-09T14:34:42;22.80;99.90
27559;DHT22;15002;52.028;5.670;2023-10-09T14:37:11;22.80;99.90
27559;DHT22;15002;52.028;5.670;2023-10-09T14:39:38;22.90;99.90
27559;DHT22;15002;52.028;5.670;2023-10-09T14:42:05;22.80;99.90
27559;DHT22;15002;52.028;5.670;2023-10-09T14:44:35;22.80;99.90
27559;DHT22;15002;52.028;5.670;2023-10-09T14:47:04;22.80;99.90
27559;DHT22;15002;52.028;5.670;2023-10-09T14:49:31;22.80;99.90
27559;DHT22;15002;52.028;5.670;2023-10-09T14:52:09;22.80;99.90
27559;DHT22;15002;52.028;5.670;2023-10-09T14:54:37;22.60;99.90
27559;DHT22;15002;52.028;5.670;2023-10-09T14:57:03;22.70;99.90
27559;DHT22;15002;52.028;5.670;2023-10-09T14:59:32;22.70;99.90
27559;DHT22;15002;52.028;5.670;2023-10-09T15:01:59;22.80;99.90
27559;DHT22;15002;52.028;5.670;2023-10-09T15:04:25;22.80;99.90
27559;DHT22;15002;52.028;5.670;2023-10-09T15:06:53;22.90;99.90
27559;DHT22;15002;52.028;5.670;2023-10-09T15:09:19;22.80;99.90
27559;DHT22;15002;52.028;5.670;2023-10-09T15:11:48;22.80;99.90
27559;DHT22;15002;52.028;5.670;2023-10-09T15:14:15;22.70;99.90
27559;DHT22;15002;52.028;5.670;2023-10-09T15:16:41;22.80;99.90
27559;DHT22;15002;52.028;5.670;2023-10-09T15:19:08;23.00;99.90
27559;DHT22;15002;52.028;5.670;2023-10-09T15:21:39;22.90;99.90
27559;DHT22;15002;52.028;5.670;2023-10-09T15:24:15;23.00;99.90
27559;DHT22;15002;52.028;5.670;2023-10-09T15:26:42;23.10;99.90
27559;DHT22;15002;52.028;5.670;2023-10-09T15:29:07;22.90;99.90
27559;DHT22;15002;52.028;5.670;2023-10-09T15:31:36;22.90;99.90
27559;DHT22;15002;52.028;5.670;2023-10-09T15:34:02;22.80;99.90
27559;DHT22;15002;52.028;5.670;2023-10-09T15:36:28;22.80;99.90
27559;DHT22;15002;52.028;5.670;2023-10-09T15:38:58;22.70;99.90
27559;DHT22;15002;52.028;5.670;2023-10-09T15:41:29;22.60;99.90
27559;DHT22;15002;52.028;5.670;2023-10-09T15:44:00;22.70;99.90
27559;DHT22;15002;52.028;5.670;2023-10-09T15:46:27;22.50;99.90
27559;DHT22;15002;52.028;5.670;2023-10-09T15:48:53;22.40;99.90
27559;DHT22;15002;52.028;5.670;2023-10-09T15:51:19;22.40;99.90
27559;DHT22;15002;52.028;5.670;2023-10-09T15:53:45;22.40;99.90
27559;DHT22;15002;52.028;5.670;2023-10-09T15:56:12;22.40;99.90
27559;DHT22;15002;52.028;5.670;2023-10-09T15:58:41;22.40;99.90
27559;DHT22;15002;52.028;5.670;2023-10-09T16:01:11;22.30;99.90
27559;DHT22;15002;52.028;5.670;2023-10-09T16:03:44;22.20;99.90
27559;DHT22;15002;52.028;5.670;2023-10-09T16:06:13;22.10;99.90
27559;DHT22;15002;52.028;5.670;2023-10-09T16:08:43;22.10;99.90
27559;DHT22;15002;52.028;5.670;2023-10-09T16:11:11;22.10;99.90
27559;DHT22;15002;52.028;5.670;2023-10-09T16:13:38;22.10;99.90
27559;DHT22;15002;52.028;5.670;2023-10-09T16:16:05;22.00;99.90
27559;DHT22;15002;52.028;5.670;2023-10-09T16:18:36;22.10;99.90
27559;DHT22;15002;52.028;5.670;2023-10-09T16:21:04;22.00;99.90
27559;DHT22;15002;52.028;5.670;2023-10-09T16:23:33;22.00;99.90
27559;DHT22;15002;52.028;5.670;2023-10-09T16:25:59;22.10;99.90